sensor_id;sensor_type;location;lat;lon;timestamp;temperature;humidity
33803;DHT22;20110;53.120;5.786;2023-01-25T00:00:25;-0.50;99.90
33803;DHT22;20110;53.120;5.786;2023-01-25T00:02:50;-0.60;99.90
33803;DHT22;20110;53.120;5.786;2023-01-25T00:05:16;-0.40;99.90
33803;DHT22;20110;53.120;5.786;2023-01-25T00:07:42;-0.60;99.90
33803;DHT22;20110;53.120;5.786;2023-01-25T00:10:08;-0.70;99.90
33803;DHT22;20110;53.120;5.786;2023-01-25T00:12:34;-0.90;99.90
33803;DHT22;20110;53.120;5.786;2023-01-25T00:15:00;-1.10;99.90
33803;DHT22;20110;53.120;5.786;2023-01-25T00:17:26;-1.30;99.90
33803;DHT22;20110;53.120;5.786;2023-01-25T00:19:52;-1.20;99.90
33803;DHT22;20110;53.120;5.786;2023-01-25T00:22:17;-1.80;99.90
33803;DHT22;20110;53.120;5.786;2023-01-25T00:24:43;-2.50;99.90
33803;DHT22;20110;53.120;5.786;2023-01-25T00:27:09;-2.20;99.90
33803;DHT22;20110;53.120;5.786;2023-01-25T00:29:34;-2.20;99.90
33803;DHT22;20110;53.120;5.786;2023-01-25T00:37:00;-1.90;99.90
33803;DHT22;20110;53.120;5.786;2023-01-25T00:39:35;-2.00;99.90
33803;DHT22;20110;53.120;5.786;2023-01-25T00:42:01;-1.50;99.90
33803;DHT22;20110;53.120;5.786;2023-01-25T00:44:26;-1.20;99.90
33803;DHT22;20110;53.120;5.786;2023-01-25T00:46:52;-1.20;99.90
33803;DHT22;20110;53.120;5.786;2023-01-25T00:49:21;-1.30;99.90
33803;DHT22;20110;53.120;5.786;2023-01-25T00:51:49;-1.90;99.90
33803;DHT22;20110;53.120;5.786;2023-01-25T00:54:16;-2.00;99.90
33803;DHT22;20110;53.120;5.786;2023-01-25T00:56:42;-2.80;99.90
33803;DHT22;20110;53.120;5.786;2023-01-25T00:59:09;-3.10;99.90
33803;DHT22;20110;53.120;5.786;2023-01-25T01:01:35;-3.10;99.90
33803;DHT22;20110;53.120;5.786;2023-01-25T01:04:01;-2.70;99.90
33803;DHT22;20110;53.120;5.786;2023-01-25T01:06:27;-2.00;99.90
33803;DHT22;20110;53.120;5.786;2023-01-25T01:08:53;-2.20;99.90
33803;DHT22;20110;53.120;5.786;2023-01-25T01:11:19;-2.50;99.90
33803;DHT22;20110;53.120;5.786;2023-01-25T01:13:45;-2.00;99.90
33803;DHT22;20110;53.120;5.786;2023-01-25T01:16:12;-2.30;99.90
33803;DHT22;20110;53.120;5.786;2023-01-25T01:18:41;-2.10;99.90
33803;DHT22;20110;53.120;5.786;2023-01-25T01:21:09;-1.50;99.90
33803;DHT22;20110;53.120;5.786;2023-01-25T01:23:37;-1.40;99.90
33803;DHT22;20110;53.120;5.786;2023-01-25T01:26:05;-1.20;99.90
33803;DHT22;20110;53.120;5.786;2023-01-25T01:28:34;-0.70;99.90
33803;DHT22;20110;53.120;5.786;2023-01-25T01:31:06;-1.20;99.90
33803;DHT22;20110;53.120;5.786;2023-01-25T01:33:34;-1.30;99.90
33803;DHT22;20110;53.120;5.786;2023-01-25T01:36:11;-1.40;99.90
33803;DHT22;20110;53.120;5.786;2023-01-25T01:38:39;-1.60;99.90
33803;DHT22;20110;53.120;5.786;2023-01-25T01:41:05;-1.90;99.90
33803;DHT22;20110;53.120;5.786;2023-01-25T01:43:32;-2.20;99.90
33803;DHT22;20110;53.120;5.786;2023-01-25T01:46:03;-2.50;99.90
33803;DHT22;20110;53.120;5.786;2023-01-25T01:48:40;-2.30;99.90
33803;DHT22;20110;53.120;5.786;2023-01-25T01:54:22;-1.60;99.90
33803;DHT22;20110;53.120;5.786;2023-01-25T01:57:01;-1.70;99.90
33803;DHT22;20110;53.120;5.786;2023-01-25T01:59:36;-1.80;99.90
33803;DHT22;20110;53.120;5.786;2023-01-25T02:02:15;-1.60;99.90
33803;DHT22;20110;53.120;5.786;2023-01-25T02:04:43;-1.50;99.90
33803;DHT22;20110;53.120;5.786;2023-01-25T02:07:21;-1.40;99.90
33803;DHT22;20110;53.120;5.786;2023-01-25T02:09:51;-0.90;99.90
33803;DHT22;20110;53.120;5.786;2023-01-25T02:12:20;-1.10;99.90
33803;DHT22;20110;53.120;5.786;2023-01-25T02:14:49;-1.30;99.90
33803;DHT22;20110;53.120;5.786;2023-01-25T02:17:36;-1.30;99.90
33803;DHT22;20110;53.120;5.786;2023-01-25T02:20:34;-1.50;99.90
33803;DHT22;20110;53.120;5.786;2023-01-25T02:23:05;-1.50;99.90
33803;DHT22;20110;53.120;5.786;2023-01-25T02:25:41;-1.50;99.90
33803;DHT22;20110;53.120;5.786;2023-01-25T02:28:36;-1.50;99.90
33803;DHT22;20110;53.120;5.786;2023-01-25T02:31:07;-1.60;99.90
33803;DHT22;20110;53.120;5.786;2023-01-25T02:33:33;-1.70;99.90
33803;DHT22;20110;53.120;5.786;2023-01-25T02:36:00;-1.70;99.90
33803;DHT22;20110;53.120;5.786;2023-01-25T02:38:46;-1.80;99.90
33803;DHT22;20110;53.120;5.786;2023-01-25T02:41:23;-1.60;99.90
33803;DHT22;20110;53.120;5.786;2023-01-25T02:43:49;-1.60;99.90
33803;DHT22;20110;53.120;5.786;2023-01-25T02:46:27;-1.60;99.90
33803;DHT22;20110;53.120;5.786;2023-01-25T02:48:56;-1.50;99.90
33803;DHT22;20110;53.120;5.786;2023-01-25T02:51:26;-1.40;99.90
33803;DHT22;20110;53.120;5.786;2023-01-25T02:53:53;-1.30;99.90
33803;DHT22;20110;53.120;5.786;2023-01-25T02:56:20;-1.50;99.90
33803;DHT22;20110;53.120;5.786;2023-01-25T02:58:46;-1.70;99.90
33803;DHT22;20110;53.120;5.786;2023-01-25T03:01:13;-1.80;99.90
33803;DHT22;20110;53.120;5.786;2023-01-25T03:03:39;-1.90;99.90
33803;DHT22;20110;53.120;5.786;2023-01-25T03:06:06;-1.80;99.90
33803;DHT22;20110;53.120;5.786;2023-01-25T03:08:33;-2.00;99.90
33803;DHT22;20110;53.120;5.786;2023-01-25T03:11:01;-1.80;99.90
33803;DHT22;20110;53.120;5.786;2023-01-25T03:13:29;-1.90;99.90
33803;DHT22;20110;53.120;5.786;2023-01-25T03:16:09;-1.80;99.90
33803;DHT22;20110;53.120;5.786;2023-01-25T03:18:37;-2.10;99.90
33803;DHT22;20110;53.120;5.786;2023-01-25T03:21:09;-2.10;99.90
33803;DHT22;20110;53.120;5.786;2023-01-25T03:23:37;-1.80;99.90
33803;DHT22;20110;53.120;5.786;2023-01-25T03:28:41;-1.70;99.90
33803;DHT22;20110;53.120;5.786;2023-01-25T03:31:09;-1.80;99.90
33803;DHT22;20110;53.120;5.786;2023-01-25T03:33:37;-1.60;99.90
33803;DHT22;20110;53.120;5.786;2023-01-25T03:36:03;-1.60;99.90
33803;DHT22;20110;53.120;5.786;2023-01-25T03:38:30;-1.60;99.90
33803;DHT22;20110;53.120;5.786;2023-01-25T03:40:56;-1.50;99.90
33803;DHT22;20110;53.120;5.786;2023-01-25T03:43:22;-1.80;99.90
33803;DHT22;20110;53.120;5.786;2023-01-25T03:45:56;-2.10;99.90
33803;DHT22;20110;53.120;5.786;2023-01-25T03:48:23;-2.00;99.90
33803;DHT22;20110;53.120;5.786;2023-01-25T03:50:58;-2.00;99.90
33803;DHT22;20110;53.120;5.786;2023-01-25T03:53:26;-1.80;99.90
33803;DHT22;20110;53.120;5.786;2023-01-25T03:56:14;-2.00;99.90
33803;DHT22;20110;53.120;5.786;2023-01-25T03:58:44;-1.90;99.90
33803;DHT22;20110;53.120;5.786;2023-01-25T04:01:11;-2.30;99.90
33803;DHT22;20110;53.120;5.786;2023-01-25T04:03:37;-2.30;99.90
33803;DHT22;20110;53.120;5.786;2023-01-25T04:06:04;-2.10;99.90
33803;DHT22;20110;53.120;5.786;2023-01-25T04:08:31;-2.00;99.90
33803;DHT22;20110;53.120;5.786;2023-01-25T04:11:00;-2.00;99.90
33803;DHT22;20110;53.120;5.786;2023-01-25T04:13:28;-1.80;99.90
33803;DHT22;20110;53.120;5.786;2023-01-25T04:15:54;-1.70;99.90
33803;DHT22;20110;53.120;5.786;2023-01-25T04:18:20;-1.60;99.90
33803;DHT22;20110;53.120;5.786;2023-01-25T04:20:55;-1.80;99.90
33803;DHT22;20110;53.120;5.786;2023-01-25T04:23:23;-1.80;99.90
33803;DHT22;20110;53.120;5.786;2023-01-25T04:25:54;-1.90;99.90
33803;DHT22;20110;53.120;5.786;2023-01-25T04:28:30;-1.90;99.90
33803;DHT22;20110;53.120;5.786;2023-01-25T04:30:56;-1.90;99.90
33803;DHT22;20110;53.120;5.786;2023-01-25T04:33:23;-2.20;99.90
33803;DHT22;20110;53.120;5.786;2023-01-25T04:35:49;-2.70;99.90
33803;DHT22;20110;53.120;5.786;2023-01-25T04:38:16;-2.30;99.90
33803;DHT22;20110;53.120;5.786;2023-01-25T04:40:43;-2.10;99.90
33803;DHT22;20110;53.120;5.786;2023-01-25T04:43:12;-2.50;99.90
33803;DHT22;20110;53.120;5.786;2023-01-25T04:45:39;-2.70;99.90
33803;DHT22;20110;53.120;5.786;2023-01-25T04:48:06;-2.80;99.90
33803;DHT22;20110;53.120;5.786;2023-01-25T04:50:38;-3.00;99.90
33803;DHT22;20110;53.120;5.786;2023-01-25T04:53:05;-3.00;99.90
33803;DHT22;20110;53.120;5.786;2023-01-25T04:55:32;-2.70;99.90
33803;DHT22;20110;53.120;5.786;2023-01-25T04:58:00;-2.40;99.90
33803;DHT22;20110;53.120;5.786;2023-01-25T05:00:26;-2.40;99.90
33803;DHT22;20110;53.120;5.786;2023-01-25T05:02:53;-2.00;99.90
33803;DHT22;20110;53.120;5.786;2023-01-25T05:05:19;-1.70;99.90
33803;DHT22;20110;53.120;5.786;2023-01-25T05:07:45;-1.70;99.90
33803;DHT22;20110;53.120;5.786;2023-01-25T05:10:11;-2.20;99.90
33803;DHT22;20110;53.120;5.786;2023-01-25T05:12:37;-2.40;99.90
33803;DHT22;20110;53.120;5.786;2023-01-25T05:15:04;-2.20;99.90
33803;DHT22;20110;53.120;5.786;2023-01-25T05:17:30;-2.70;99.90
33803;DHT22;20110;53.120;5.786;2023-01-25T05:19:56;-3.10;99.90
33803;DHT22;20110;53.120;5.786;2023-01-25T05:22:22;-2.60;99.90
33803;DHT22;20110;53.120;5.786;2023-01-25T05:24:48;-2.40;99.90
33803;DHT22;20110;53.120;5.786;2023-01-25T05:27:16;-2.70;99.90
33803;DHT22;20110;53.120;5.786;2023-01-25T05:29:44;-2.90;99.90
33803;DHT22;20110;53.120;5.786;2023-01-25T05:32:16;-3.20;99.90
33803;DHT22;20110;53.120;5.786;2023-01-25T05:34:44;-3.20;99.90
33803;DHT22;20110;53.120;5.786;2023-01-25T05:37:14;-3.20;99.90
33803;DHT22;20110;53.120;5.786;2023-01-25T05:39:42;-2.50;99.90
33803;DHT22;20110;53.120;5.786;2023-01-25T05:42:10;-2.60;99.90
33803;DHT22;20110;53.120;5.786;2023-01-25T05:44:38;-2.40;99.90
33803;DHT22;20110;53.120;5.786;2023-01-25T05:47:04;-2.20;99.90
33803;DHT22;20110;53.120;5.786;2023-01-25T05:49:30;-1.80;99.90
33803;DHT22;20110;53.120;5.786;2023-01-25T05:51:56;-1.50;99.90
33803;DHT22;20110;53.120;5.786;2023-01-25T05:54:22;-1.50;99.90
33803;DHT22;20110;53.120;5.786;2023-01-25T05:56:49;-1.50;99.90
33803;DHT22;20110;53.120;5.786;2023-01-25T05:59:15;-1.80;99.90
33803;DHT22;20110;53.120;5.786;2023-01-25T06:01:42;-1.90;99.90
33803;DHT22;20110;53.120;5.786;2023-01-25T06:04:12;-2.40;99.90
33803;DHT22;20110;53.120;5.786;2023-01-25T06:06:39;-2.30;99.90
33803;DHT22;20110;53.120;5.786;2023-01-25T06:09:05;-2.20;99.90
33803;DHT22;20110;53.120;5.786;2023-01-25T06:11:31;-2.40;99.90
33803;DHT22;20110;53.120;5.786;2023-01-25T06:13:57;-2.00;99.90
33803;DHT22;20110;53.120;5.786;2023-01-25T06:16:23;-1.90;99.90
33803;DHT22;20110;53.120;5.786;2023-01-25T06:18:49;-1.70;99.90
33803;DHT22;20110;53.120;5.786;2023-01-25T06:21:14;-1.90;99.90
33803;DHT22;20110;53.120;5.786;2023-01-25T06:23:40;-1.70;99.90
33803;DHT22;20110;53.120;5.786;2023-01-25T06:26:09;-1.70;99.90
33803;DHT22;20110;53.120;5.786;2023-01-25T06:28:37;-1.60;99.90
33803;DHT22;20110;53.120;5.786;2023-01-25T06:31:17;-1.90;99.90
33803;DHT22;20110;53.120;5.786;2023-01-25T06:33:47;-1.80;99.90
33803;DHT22;20110;53.120;5.786;2023-01-25T06:36:16;-2.30;99.90
33803;DHT22;20110;53.120;5.786;2023-01-25T06:38:46;-1.70;99.90
33803;DHT22;20110;53.120;5.786;2023-01-25T06:41:14;-0.80;99.90
33803;DHT22;20110;53.120;5.786;2023-01-25T06:43:39;-1.50;99.90
33803;DHT22;20110;53.120;5.786;2023-01-25T06:46:08;-1.60;99.90
33803;DHT22;20110;53.120;5.786;2023-01-25T06:48:36;-2.00;99.90
33803;DHT22;20110;53.120;5.786;2023-01-25T06:51:05;-2.00;99.90
33803;DHT22;20110;53.120;5.786;2023-01-25T06:53:34;-1.90;99.90
33803;DHT22;20110;53.120;5.786;2023-01-25T06:56:04;-1.70;99.90
33803;DHT22;20110;53.120;5.786;2023-01-25T06:58:32;-1.60;99.90
33803;DHT22;20110;53.120;5.786;2023-01-25T07:01:04;-1.60;99.90
33803;DHT22;20110;53.120;5.786;2023-01-25T07:03:37;-2.00;99.90
33803;DHT22;20110;53.120;5.786;2023-01-25T07:06:05;-1.80;99.90
33803;DHT22;20110;53.120;5.786;2023-01-25T07:08:33;-1.70;99.90
33803;DHT22;20110;53.120;5.786;2023-01-25T07:11:01;-1.70;99.90
33803;DHT22;20110;53.120;5.786;2023-01-25T07:13:30;-2.00;99.90
33803;DHT22;20110;53.120;5.786;2023-01-25T07:15:59;-1.70;99.90
33803;DHT22;20110;53.120;5.786;2023-01-25T07:18:28;-2.00;99.90
33803;DHT22;20110;53.120;5.786;2023-01-25T07:21:04;-2.00;99.90
33803;DHT22;20110;53.120;5.786;2023-01-25T07:23:32;-1.60;99.90
33803;DHT22;20110;53.120;5.786;2023-01-25T07:25:59;-0.30;99.90
33803;DHT22;20110;53.120;5.786;2023-01-25T07:28:26;-1.10;99.90
33803;DHT22;20110;53.120;5.786;2023-01-25T07:30:52;-1.40;99.90
33803;DHT22;20110;53.120;5.786;2023-01-25T07:33:18;-1.30;99.90
33803;DHT22;20110;53.120;5.786;2023-01-25T07:35:44;-1.70;99.90
33803;DHT22;20110;53.120;5.786;2023-01-25T07:38:09;-2.00;99.90
33803;DHT22;20110;53.120;5.786;2023-01-25T07:40:35;-1.70;99.90
33803;DHT22;20110;53.120;5.786;2023-01-25T07:43:01;-1.50;99.90
33803;DHT22;20110;53.120;5.786;2023-01-25T07:45:27;-1.50;99.90
33803;DHT22;20110;53.120;5.786;2023-01-25T07:47:58;-1.50;99.90
33803;DHT22;20110;53.120;5.786;2023-01-25T07:50:25;-1.80;99.90
33803;DHT22;20110;53.120;5.786;2023-01-25T07:52:52;-1.60;99.90
33803;DHT22;20110;53.120;5.786;2023-01-25T07:55:18;-1.40;99.90
33803;DHT22;20110;53.120;5.786;2023-01-25T07:57:44;-1.40;99.90
33803;DHT22;20110;53.120;5.786;2023-01-25T08:00:11;-1.80;99.90
33803;DHT22;20110;53.120;5.786;2023-01-25T08:02:38;-1.70;99.90
33803;DHT22;20110;53.120;5.786;2023-01-25T08:05:04;-1.70;99.90
33803;DHT22;20110;53.120;5.786;2023-01-25T08:07:31;-1.30;99.90
33803;DHT22;20110;53.120;5.786;2023-01-25T08:09:57;-1.10;99.90
33803;DHT22;20110;53.120;5.786;2023-01-25T08:12:23;-1.20;99.90
33803;DHT22;20110;53.120;5.786;2023-01-25T08:14:51;-1.40;99.90
33803;DHT22;20110;53.120;5.786;2023-01-25T08:17:17;-1.40;99.90
33803;DHT22;20110;53.120;5.786;2023-01-25T08:19:42;-1.40;99.90
33803;DHT22;20110;53.120;5.786;2023-01-25T08:22:08;-1.40;99.90
33803;DHT22;20110;53.120;5.786;2023-01-25T08:24:34;-1.40;99.90
33803;DHT22;20110;53.120;5.786;2023-01-25T08:27:00;-1.30;99.90
33803;DHT22;20110;53.120;5.786;2023-01-25T08:29:26;-1.30;99.90
33803;DHT22;20110;53.120;5.786;2023-01-25T08:31:53;-1.10;99.90
33803;DHT22;20110;53.120;5.786;2023-01-25T08:34:19;-1.10;99.90
33803;DHT22;20110;53.120;5.786;2023-01-25T08:36:45;-1.00;99.90
33803;DHT22;20110;53.120;5.786;2023-01-25T08:39:11;-1.00;99.90
33803;DHT22;20110;53.120;5.786;2023-01-25T08:41:37;-1.00;99.90
33803;DHT22;20110;53.120;5.786;2023-01-25T08:44:04;-0.90;99.90
33803;DHT22;20110;53.120;5.786;2023-01-25T08:46:31;-1.00;99.90
33803;DHT22;20110;53.120;5.786;2023-01-25T08:49:00;-1.00;99.90
33803;DHT22;20110;53.120;5.786;2023-01-25T08:51:27;-0.90;99.90
33803;DHT22;20110;53.120;5.786;2023-01-25T08:53:53;-0.90;99.90
33803;DHT22;20110;53.120;5.786;2023-01-25T08:56:19;-1.00;99.90
33803;DHT22;20110;53.120;5.786;2023-01-25T08:58:47;-1.00;99.90
33803;DHT22;20110;53.120;5.786;2023-01-25T09:01:15;-1.10;99.90
33803;DHT22;20110;53.120;5.786;2023-01-25T09:03:44;-1.00;99.90
33803;DHT22;20110;53.120;5.786;2023-01-25T09:06:12;-1.00;99.90
33803;DHT22;20110;53.120;5.786;2023-01-25T09:08:38;-1.00;99.90
33803;DHT22;20110;53.120;5.786;2023-01-25T09:11:06;-1.00;99.90
33803;DHT22;20110;53.120;5.786;2023-01-25T09:13:34;-1.00;99.90
33803;DHT22;20110;53.120;5.786;2023-01-25T09:16:04;-0.90;99.90
33803;DHT22;20110;53.120;5.786;2023-01-25T09:18:33;-0.90;99.90
33803;DHT22;20110;53.120;5.786;2023-01-25T09:21:06;-0.80;99.90
33803;DHT22;20110;53.120;5.786;2023-01-25T09:23:32;-0.90;99.90
33803;DHT22;20110;53.120;5.786;2023-01-25T09:25:59;-0.80;99.90
33803;DHT22;20110;53.120;5.786;2023-01-25T09:28:28;-0.90;99.90
33803;DHT22;20110;53.120;5.786;2023-01-25T09:30:58;-0.90;99.90
33803;DHT22;20110;53.120;5.786;2023-01-25T09:33:26;-0.80;99.90
33803;DHT22;20110;53.120;5.786;2023-01-25T09:35:54;-0.80;99.90
33803;DHT22;20110;53.120;5.786;2023-01-25T09:38:20;-0.60;99.90
33803;DHT22;20110;53.120;5.786;2023-01-25T09:46:55;-0.70;99.90
33803;DHT22;20110;53.120;5.786;2023-01-25T09:55:25;-0.70;99.90
33803;DHT22;20110;53.120;5.786;2023-01-25T09:57:54;-0.70;99.90
33803;DHT22;20110;53.120;5.786;2023-01-25T10:00:41;-0.70;99.90
33803;DHT22;20110;53.120;5.786;2023-01-25T10:03:19;-0.60;99.90
33803;DHT22;20110;53.120;5.786;2023-01-25T10:05:53;-0.70;99.90
33803;DHT22;20110;53.120;5.786;2023-01-25T10:11:31;-0.80;99.90
33803;DHT22;20110;53.120;5.786;2023-01-25T10:13:58;-0.80;99.90
33803;DHT22;20110;53.120;5.786;2023-01-25T10:16:31;-0.80;99.90
33803;DHT22;20110;53.120;5.786;2023-01-25T10:22:02;-0.80;99.90
33803;DHT22;20110;53.120;5.786;2023-01-25T10:24:56;-0.90;99.90
33803;DHT22;20110;53.120;5.786;2023-01-25T10:30:27;-0.70;99.90
33803;DHT22;20110;53.120;5.786;2023-01-25T10:33:12;-0.80;99.90
33803;DHT22;20110;53.120;5.786;2023-01-25T10:35:43;-0.80;99.90
33803;DHT22;20110;53.120;5.786;2023-01-25T10:40:57;-0.70;99.90
33803;DHT22;20110;53.120;5.786;2023-01-25T10:43:27;-0.60;99.90
33803;DHT22;20110;53.120;5.786;2023-01-25T10:45:53;-0.50;99.90
33803;DHT22;20110;53.120;5.786;2023-01-25T10:48:35;-0.50;99.90
33803;DHT22;20110;53.120;5.786;2023-01-25T10:51:03;-0.50;99.90
33803;DHT22;20110;53.120;5.786;2023-01-25T10:53:37;-0.50;99.90
33803;DHT22;20110;53.120;5.786;2023-01-25T10:58:40;-0.50;99.90
33803;DHT22;20110;53.120;5.786;2023-01-25T11:01:29;-0.50;99.90
33803;DHT22;20110;53.120;5.786;2023-01-25T11:03:57;-0.40;99.90
33803;DHT22;20110;53.120;5.786;2023-01-25T11:06:35;-0.40;99.90
33803;DHT22;20110;53.120;5.786;2023-01-25T11:14:36;-0.30;99.90
33803;DHT22;20110;53.120;5.786;2023-01-25T11:17:03;-0.30;99.90
33803;DHT22;20110;53.120;5.786;2023-01-25T11:19:35;-0.30;99.90
33803;DHT22;20110;53.120;5.786;2023-01-25T11:22:21;-0.30;99.90
33803;DHT22;20110;53.120;5.786;2023-01-25T11:24:50;-0.30;99.90
33803;DHT22;20110;53.120;5.786;2023-01-25T11:27:22;-0.30;99.90
33803;DHT22;20110;53.120;5.786;2023-01-25T11:32:30;-0.20;99.90
33803;DHT22;20110;53.120;5.786;2023-01-25T11:34:57;-0.10;99.90
33803;DHT22;20110;53.120;5.786;2023-01-25T11:37:42;-0.20;99.90
33803;DHT22;20110;53.120;5.786;2023-01-25T11:40:31;-0.20;99.90
33803;DHT22;20110;53.120;5.786;2023-01-25T11:49:34;-0.20;99.90
33803;DHT22;20110;53.120;5.786;2023-01-25T11:58:38;-0.10;99.90
33803;DHT22;20110;53.120;5.786;2023-01-25T12:10:18;0.20;99.90
33803;DHT22;20110;53.120;5.786;2023-01-25T12:19:41;0.40;99.90
33803;DHT22;20110;53.120;5.786;2023-01-25T12:28:21;0.60;99.90
33803;DHT22;20110;53.120;5.786;2023-01-25T12:31:07;0.70;99.90
33803;DHT22;20110;53.120;5.786;2023-01-25T12:33:51;0.60;99.90
33803;DHT22;20110;53.120;5.786;2023-01-25T12:36:37;0.70;99.90
33803;DHT22;20110;53.120;5.786;2023-01-25T12:44:30;0.60;99.90
33803;DHT22;20110;53.120;5.786;2023-01-25T12:47:12;0.50;99.90
33803;DHT22;20110;53.120;5.786;2023-01-25T12:55:44;0.60;99.90
33803;DHT22;20110;53.120;5.786;2023-01-25T12:58:25;0.50;99.90
33803;DHT22;20110;53.120;5.786;2023-01-25T13:01:16;0.50;99.90
33803;DHT22;20110;53.120;5.786;2023-01-25T13:04:03;0.50;99.90
33803;DHT22;20110;53.120;5.786;2023-01-25T13:12:27;0.60;99.90
33803;DHT22;20110;53.120;5.786;2023-01-25T13:14:53;0.50;99.90
33803;DHT22;20110;53.120;5.786;2023-01-25T13:17:31;0.50;99.90
33803;DHT22;20110;53.120;5.786;2023-01-25T13:19:58;0.40;99.90
33803;DHT22;20110;53.120;5.786;2023-01-25T13:25:26;0.30;99.90
33803;DHT22;20110;53.120;5.786;2023-01-25T13:31:05;0.20;99.90
33803;DHT22;20110;53.120;5.786;2023-01-25T13:33:33;0.40;99.90
33803;DHT22;20110;53.120;5.786;2023-01-25T13:36:42;0.40;99.90
33803;DHT22;20110;53.120;5.786;2023-01-25T13:42:19;0.50;99.90
33803;DHT22;20110;53.120;5.786;2023-01-25T13:44:50;0.50;99.90
33803;DHT22;20110;53.120;5.786;2023-01-25T13:47:24;0.60;99.90
33803;DHT22;20110;53.120;5.786;2023-01-25T13:50:04;0.70;99.90
33803;DHT22;20110;53.120;5.786;2023-01-25T13:53:16;0.60;99.90
33803;DHT22;20110;53.120;5.786;2023-01-25T13:55:50;0.60;99.90
33803;DHT22;20110;53.120;5.786;2023-01-25T13:58:27;0.50;99.90
33803;DHT22;20110;53.120;5.786;2023-01-25T14:00:59;0.40;99.90
33803;DHT22;20110;53.120;5.786;2023-01-25T14:03:34;0.50;99.90
33803;DHT22;20110;53.120;5.786;2023-01-25T14:06:06;0.50;99.90
33803;DHT22;20110;53.120;5.786;2023-01-25T14:08:42;0.50;99.90
33803;DHT22;20110;53.120;5.786;2023-01-25T14:11:09;0.50;99.90
33803;DHT22;20110;53.120;5.786;2023-01-25T14:14:15;0.40;99.90
33803;DHT22;20110;53.120;5.786;2023-01-25T14:16:45;0.50;99.90
33803;DHT22;20110;53.120;5.786;2023-01-25T14:19:22;0.40;99.90
33803;DHT22;20110;53.120;5.786;2023-01-25T14:22:05;0.40;99.90
33803;DHT22;20110;53.120;5.786;2023-01-25T14:24:35;0.40;99.90
33803;DHT22;20110;53.120;5.786;2023-01-25T14:27:05;0.50;99.90
33803;DHT22;20110;53.120;5.786;2023-01-25T14:29:34;0.40;99.90
33803;DHT22;20110;53.120;5.786;2023-01-25T14:32:01;0.40;99.90
33803;DHT22;20110;53.120;5.786;2023-01-25T14:34:28;0.40;99.90
33803;DHT22;20110;53.120;5.786;2023-01-25T14:37:17;0.30;99.90
33803;DHT22;20110;53.120;5.786;2023-01-25T14:39:46;0.40;99.90
33803;DHT22;20110;53.120;5.786;2023-01-25T14:42:14;0.40;99.90
33803;DHT22;20110;53.120;5.786;2023-01-25T14:44:41;0.30;99.90
33803;DHT22;20110;53.120;5.786;2023-01-25T14:49:54;0.30;99.90
33803;DHT22;20110;53.120;5.786;2023-01-25T14:52:22;0.40;99.90
33803;DHT22;20110;53.120;5.786;2023-01-25T14:54:56;0.40;99.90
33803;DHT22;20110;53.120;5.786;2023-01-25T14:57:34;0.30;99.90
33803;DHT22;20110;53.120;5.786;2023-01-25T15:02:52;0.30;99.90
33803;DHT22;20110;53.120;5.786;2023-01-25T15:05:28;0.30;99.90
33803;DHT22;20110;53.120;5.786;2023-01-25T15:10:32;0.30;99.90
33803;DHT22;20110;53.120;5.786;2023-01-25T15:15:33;0.30;99.90
33803;DHT22;20110;53.120;5.786;2023-01-25T15:18:00;0.20;99.90
33803;DHT22;20110;53.120;5.786;2023-01-25T15:20:39;0.10;99.90
33803;DHT22;20110;53.120;5.786;2023-01-25T15:23:20;0.10;99.90
33803;DHT22;20110;53.120;5.786;2023-01-25T15:25:50;0.10;99.90
33803;DHT22;20110;53.120;5.786;2023-01-25T15:28:26;0.00;99.90
33803;DHT22;20110;53.120;5.786;2023-01-25T15:30:54;0.00;99.90
33803;DHT22;20110;53.120;5.786;2023-01-25T15:33:28;0.00;99.90
33803;DHT22;20110;53.120;5.786;2023-01-25T15:35:55;0.00;99.90
33803;DHT22;20110;53.120;5.786;2023-01-25T15:38:21;0.00;99.90
33803;DHT22;20110;53.120;5.786;2023-01-25T15:40:47;-0.10;99.90
33803;DHT22;20110;53.120;5.786;2023-01-25T15:43:15;0.00;99.90
33803;DHT22;20110;53.120;5.786;2023-01-25T15:45:45;0.00;99.90
33803;DHT22;20110;53.120;5.786;2023-01-25T15:48:19;0.10;99.90
33803;DHT22;20110;53.120;5.786;2023-01-25T15:50:54;0.00;99.90
33803;DHT22;20110;53.120;5.786;2023-01-25T15:53:22;0.10;99.90
33803;DHT22;20110;53.120;5.786;2023-01-25T15:55:54;0.10;99.90
33803;DHT22;20110;53.120;5.786;2023-01-25T15:58:30;0.20;99.90
33803;DHT22;20110;53.120;5.786;2023-01-25T16:00:58;0.00;99.90
33803;DHT22;20110;53.120;5.786;2023-01-25T16:03:25;0.00;99.90
33803;DHT22;20110;53.120;5.786;2023-01-25T16:06:02;0.00;99.90
33803;DHT22;20110;53.120;5.786;2023-01-25T16:08:30;0.00;99.90
33803;DHT22;20110;53.120;5.786;2023-01-25T16:10:56;-0.10;99.90
33803;DHT22;20110;53.120;5.786;2023-01-25T16:13:22;-0.20;99.90
33803;DHT22;20110;53.120;5.786;2023-01-25T16:15:52;-0.10;99.90
33803;DHT22;20110;53.120;5.786;2023-01-25T16:18:20;-0.10;99.90
33803;DHT22;20110;53.120;5.786;2023-01-25T16:20:46;-0.10;99.90
33803;DHT22;20110;53.120;5.786;2023-01-25T16:23:11;0.00;99.90
33803;DHT22;20110;53.120;5.786;2023-01-25T16:25:41;-0.10;99.90
33803;DHT22;20110;53.120;5.786;2023-01-25T16:28:15;-0.10;99.90
33803;DHT22;20110;53.120;5.786;2023-01-25T16:30:42;-0.10;99.90
33803;DHT22;20110;53.120;5.786;2023-01-25T16:33:11;-0.10;99.90
33803;DHT22;20110;53.120;5.786;2023-01-25T16:35:37;-0.10;99.90
33803;DHT22;20110;53.120;5.786;2023-01-25T16:38:03;0.00;99.90
33803;DHT22;20110;53.120;5.786;2023-01-25T16:40:35;-0.10;99.90
33803;DHT22;20110;53.120;5.786;2023-01-25T16:43:03;-0.20;99.90
33803;DHT22;20110;53.120;5.786;2023-01-25T16:45:29;-0.20;99.90
33803;DHT22;20110;53.120;5.786;2023-01-25T16:47:55;-0.20;99.90
33803;DHT22;20110;53.120;5.786;2023-01-25T16:50:22;-0.20;99.90
33803;DHT22;20110;53.120;5.786;2023-01-25T16:52:48;-0.30;99.90
33803;DHT22;20110;53.120;5.786;2023-01-25T16:55:17;-0.20;99.90
33803;DHT22;20110;53.120;5.786;2023-01-25T16:57:46;-0.20;99.90
33803;DHT22;20110;53.120;5.786;2023-01-25T17:00:14;-0.20;99.90
33803;DHT22;20110;53.120;5.786;2023-01-25T17:02:41;-0.20;99.90
33803;DHT22;20110;53.120;5.786;2023-01-25T17:05:09;-0.20;99.90
33803;DHT22;20110;53.120;5.786;2023-01-25T17:07:35;-0.30;99.90
33803;DHT22;20110;53.120;5.786;2023-01-25T17:10:02;-0.30;99.90
33803;DHT22;20110;53.120;5.786;2023-01-25T17:12:29;-0.30;99.90
33803;DHT22;20110;53.120;5.786;2023-01-25T17:14:55;-0.30;99.90
33803;DHT22;20110;53.120;5.786;2023-01-25T17:17:21;-0.30;99.90
33803;DHT22;20110;53.120;5.786;2023-01-25T17:19:48;-0.40;99.90
33803;DHT22;20110;53.120;5.786;2023-01-25T17:22:15;-0.40;99.90
33803;DHT22;20110;53.120;5.786;2023-01-25T17:24:41;-0.40;99.90
33803;DHT22;20110;53.120;5.786;2023-01-25T17:27:07;-0.50;99.90
33803;DHT22;20110;53.120;5.786;2023-01-25T17:29:33;-0.40;99.90
33803;DHT22;20110;53.120;5.786;2023-01-25T17:31:59;-0.50;99.90
33803;DHT22;20110;53.120;5.786;2023-01-25T17:34:24;-0.60;99.90
33803;DHT22;20110;53.120;5.786;2023-01-25T17:36:51;-0.50;99.90
33803;DHT22;20110;53.120;5.786;2023-01-25T17:39:18;-0.50;99.90
33803;DHT22;20110;53.120;5.786;2023-01-25T17:41:46;-0.50;99.90
33803;DHT22;20110;53.120;5.786;2023-01-25T17:44:17;-0.50;99.90
33803;DHT22;20110;53.120;5.786;2023-01-25T17:46:45;-0.50;99.90
33803;DHT22;20110;53.120;5.786;2023-01-25T17:49:13;-0.40;99.90